createdAt,value
2022-09-12T00:01:52.529Z,5.88
2022-09-12T00:04:19.354Z,5.07
2022-09-12T00:06:45.963Z,4.72
2022-09-12T00:09:14.476Z,5.32
2022-09-12T00:11:44.471Z,4.80
2022-09-12T00:14:14.411Z,7.55
2022-09-12T00:16:42.056Z,6.15
2022-09-12T00:19:09.049Z,6.50
2022-09-12T00:21:37.482Z,5.28
2022-09-12T00:24:04.610Z,7.07
2022-09-12T00:26:31.484Z,4.70
2022-09-12T00:31:40.292Z,6.40
2022-09-12T00:34:06.987Z,5.95
2022-09-12T00:36:33.852Z,6.97
2022-09-12T00:39:00.836Z,5.15
2022-09-12T00:41:30.469Z,6.53
2022-09-12T00:44:00.261Z,4.10
2022-09-12T00:46:50.858Z,6.05
2022-09-12T00:49:35.485Z,4.35
2022-09-12T00:52:12.823Z,5.43
2022-09-12T00:54:45.326Z,8.10
2022-09-12T00:57:15.252Z,9.10
2022-09-12T00:59:50.192Z,8.32
2022-09-12T01:02:17.299Z,5.57
2022-09-12T01:04:44.758Z,7.68
2022-09-12T01:07:12.588Z,4.63
2022-09-12T01:09:40.965Z,5.65
2022-09-12T01:12:08.486Z,4.82
2022-09-12T01:14:35.473Z,5.13
2022-09-12T01:17:02.219Z,7.03
2022-09-12T01:19:47.545Z,4.75
2022-09-12T01:22:50.043Z,9.18
2022-09-12T01:25:36.272Z,5.63
2022-09-12T01:28:18.395Z,7.45
2022-09-12T01:30:48.109Z,5.93
2022-09-12T01:33:52.401Z,6.97
2022-09-12T01:36:53.038Z,6.78
2022-09-12T01:39:28.633Z,7.40
2022-09-12T01:42:26.929Z,5.20
2022-09-12T01:45:03.550Z,7.25
2022-09-12T01:47:56.731Z,5.13
2022-09-12T01:50:30.351Z,7.15
2022-09-12T01:53:04.958Z,5.47
2022-09-12T01:55:47.118Z,6.45
2022-09-12T01:58:20.719Z,7.20
2022-09-12T02:00:55.794Z,10.10
2022-09-12T02:03:29.420Z,6.07
2022-09-12T02:06:06.661Z,9.55
2022-09-12T02:08:39.824Z,6.10
2022-09-12T02:11:11.965Z,6.07
2022-09-12T02:13:43.890Z,6.40
2022-09-12T02:16:16.655Z,6.72
2022-09-12T02:18:53.706Z,8.18
2022-09-12T02:21:22.760Z,9.38
2022-09-12T02:23:57.206Z,8.75
2022-09-12T02:26:31.626Z,6.57
2022-09-12T02:28:58.318Z,6.15
2022-09-12T02:32:55.582Z,7.65
2022-09-12T02:35:36.737Z,10.40
2022-09-12T02:38:09.709Z,8.15
2022-09-12T02:40:36.835Z,7.20
2022-09-12T02:43:06.157Z,6.25
2022-09-12T02:45:34.608Z,7.22
2022-09-12T02:48:18.300Z,7.82
2022-09-12T02:50:45.358Z,8.98
2022-09-12T02:53:12.047Z,6.57
2022-09-12T02:55:40.724Z,7.10
2022-09-12T02:58:12.638Z,7.50
2022-09-12T03:00:57.729Z,11.80
2022-09-12T03:03:53.169Z,8.63
2022-09-12T03:06:58.327Z,9.27
2022-09-12T03:09:50.268Z,8.85
2022-09-12T03:12:19.754Z,9.57
2022-09-12T03:15:08.086Z,7.50
2022-09-12T03:17:40.725Z,9.52
2022-09-12T03:20:15.261Z,7.03
2022-09-12T03:22:53.613Z,8.25
2022-09-12T03:25:30.814Z,10.70
2022-09-12T03:28:10.383Z,6.60
2022-09-12T03:30:45.985Z,9.32
2022-09-12T03:33:14.909Z,8.50
2022-09-12T03:35:42.397Z,8.75
2022-09-12T03:38:09.539Z,9.63
2022-09-12T03:40:37.330Z,9.88
2022-09-12T03:43:05.790Z,8.50
2022-09-12T03:45:32.730Z,7.85
2022-09-12T03:47:59.591Z,7.00
2022-09-12T03:50:26.622Z,7.43
2022-09-12T03:52:53.345Z,6.80
2022-09-12T03:55:20.113Z,7.47
2022-09-12T03:57:46.789Z,10.88
2022-09-12T04:00:19.065Z,11.43
2022-09-12T04:02:46.295Z,10.33
2022-09-12T04:05:12.902Z,9.10
2022-09-12T04:07:39.535Z,11.75
2022-09-12T04:10:06.877Z,9.20
2022-09-12T04:12:33.477Z,11.40
2022-09-12T04:15:00.057Z,9.02
2022-09-12T04:17:26.704Z,8.25
2022-09-12T04:19:53.336Z,10.82
2022-09-12T04:22:21.203Z,9.45
2022-09-12T04:24:47.724Z,13.20
2022-09-12T04:27:14.424Z,9.10
2022-09-12T04:29:40.959Z,9.23
2022-09-12T04:33:40.352Z,9.68
2022-09-12T04:36:12.544Z,8.38
2022-09-12T04:38:39.360Z,11.15
2022-09-12T04:41:21.290Z,11.30
2022-09-12T04:43:52.544Z,10.35
2022-09-12T04:46:20.503Z,9.20
2022-09-12T04:48:48.166Z,10.00
2022-09-12T04:51:23.149Z,14.90
2022-09-12T04:53:53.560Z,10.68
2022-09-12T04:56:21.273Z,13.32
2022-09-12T04:58:49.996Z,12.35
2022-09-12T05:01:19.226Z,10.45
2022-09-12T05:03:47.291Z,12.20
2022-09-12T05:06:20.117Z,11.43
2022-09-12T05:08:47.123Z,12.23
2022-09-12T05:11:18.119Z,13.18
2022-09-12T05:13:47.730Z,11.05
2022-09-12T05:16:15.746Z,10.38
2022-09-12T05:18:44.382Z,11.00
2022-09-12T05:21:13.580Z,12.75
2022-09-12T05:23:40.365Z,14.23
2022-09-12T05:26:08.099Z,13.95
2022-09-12T05:28:37.632Z,10.73
2022-09-12T05:31:10.535Z,10.40
2022-09-12T05:33:39.020Z,10.00
2022-09-12T05:36:07.598Z,11.82
2022-09-12T05:38:38.040Z,12.27
2022-09-12T05:41:16.255Z,10.40
2022-09-12T05:43:46.419Z,10.02
2022-09-12T05:46:15.958Z,11.07
2022-09-12T05:48:44.869Z,12.02
2022-09-12T05:51:20.691Z,10.38
2022-09-12T05:53:51.648Z,22.85
2022-09-12T05:56:24.070Z,14.80
2022-09-12T05:59:00.561Z,10.60
2022-09-12T06:01:28.496Z,10.90
2022-09-12T06:03:57.807Z,11.57
2022-09-12T06:06:25.642Z,10.73
2022-09-12T06:08:55.948Z,10.05
2022-09-12T06:11:26.002Z,11.18
2022-09-12T06:13:53.407Z,14.52
2022-09-12T06:16:26.208Z,10.73
2022-09-12T06:18:55.379Z,9.90
2022-09-12T06:21:23.362Z,10.55
2022-09-12T06:23:54.239Z,10.20
2022-09-12T06:26:23.587Z,10.82
2022-09-12T06:28:50.909Z,15.93
2022-09-12T06:34:33.917Z,11.88
2022-09-12T06:37:00.518Z,12.20
2022-09-12T06:39:27.076Z,13.32
2022-09-12T06:41:54.148Z,10.48
2022-09-12T06:44:22.908Z,10.90
2022-09-12T06:46:52.695Z,8.98
2022-09-12T06:49:19.260Z,12.48
2022-09-12T06:51:45.960Z,8.65
2022-09-12T06:54:14.625Z,9.70
2022-09-12T06:56:41.626Z,9.18
2022-09-12T06:59:08.603Z,7.78
2022-09-12T07:01:35.203Z,7.32
2022-09-12T07:04:04.341Z,6.85
2022-09-12T07:06:36.797Z,7.05
2022-09-12T07:09:05.865Z,6.43
2022-09-12T07:11:37.243Z,8.63
2022-09-12T07:14:05.803Z,9.80
2022-09-12T07:16:32.715Z,9.48
2022-09-12T07:19:01.435Z,6.90
2022-09-12T07:21:28.873Z,7.97
2022-09-12T07:23:57.897Z,6.30
2022-09-12T07:26:27.091Z,5.82
2022-09-12T07:29:07.871Z,7.63
2022-09-12T07:31:39.865Z,6.00
2022-09-12T07:34:06.942Z,6.78
2022-09-12T07:36:34.474Z,7.45
2022-09-12T07:39:01.693Z,6.03
2022-09-12T07:41:30.534Z,8.90
2022-09-12T07:43:59.758Z,6.03
2022-09-12T07:46:29.631Z,7.93
2022-09-12T07:48:58.238Z,7.90
2022-09-12T07:51:26.851Z,6.95
2022-09-12T07:53:53.528Z,5.57
2022-09-12T07:56:24.064Z,8.05
2022-09-12T07:58:52.762Z,5.78
2022-09-12T08:01:21.287Z,7.90
2022-09-12T08:03:49.855Z,5.85
2022-09-12T08:06:20.428Z,5.85
2022-09-12T08:08:48.883Z,5.25
2022-09-12T08:11:18.197Z,6.03
2022-09-12T08:13:45.780Z,4.45
2022-09-12T08:16:15.259Z,6.50
2022-09-12T08:18:42.435Z,3.92
2022-09-12T08:21:15.068Z,5.13
2022-09-12T08:23:42.926Z,5.00
2022-09-12T08:26:10.896Z,5.30
2022-09-12T08:28:40.219Z,4.63
2022-09-12T08:31:08.996Z,8.23
2022-09-12T08:35:37.039Z,4.03
2022-09-12T08:38:03.653Z,6.20
2022-09-12T08:40:30.571Z,4.78
2022-09-12T08:43:14.356Z,3.83
2022-09-12T08:46:05.170Z,3.67
2022-09-12T08:48:32.164Z,4.18
2022-09-12T08:51:00.081Z,5.20
2022-09-12T08:53:28.797Z,7.30
2022-09-12T08:56:00.393Z,3.42
2022-09-12T08:58:29.349Z,6.78
2022-09-12T09:01:19.246Z,3.88
2022-09-12T09:04:25.776Z,5.65
2022-09-12T09:07:31.280Z,6.28
2022-09-12T09:10:25.274Z,4.45
2022-09-12T09:13:06.981Z,3.60
2022-09-12T09:15:56.258Z,4.25
2022-09-12T09:18:33.143Z,4.30
2022-09-12T09:21:04.930Z,4.75
2022-09-12T09:23:41.863Z,3.63
2022-09-12T09:26:18.041Z,4.50
2022-09-12T09:28:56.096Z,3.42
2022-09-12T09:31:24.599Z,4.85
2022-09-12T09:33:55.295Z,5.80
2022-09-12T09:36:34.953Z,3.60
2022-09-12T09:39:10.295Z,4.43
2022-09-12T09:41:45.697Z,3.63
2022-09-12T09:44:12.647Z,3.42
2022-09-12T09:46:39.668Z,5.15
2022-09-12T09:49:07.860Z,7.57
2022-09-12T09:51:37.766Z,5.15
2022-09-12T09:54:21.259Z,5.85
2022-09-12T09:56:48.306Z,2.92
2022-09-12T09:59:27.202Z,3.65
2022-09-12T10:01:59.979Z,3.20
2022-09-12T10:04:32.624Z,2.70
2022-09-12T10:07:04.580Z,3.55
2022-09-12T10:09:33.758Z,4.45
2022-09-12T10:12:20.993Z,4.55
2022-09-12T10:14:59.061Z,4.40
2022-09-12T10:17:33.241Z,2.88
2022-09-12T10:20:19.826Z,4.60
2022-09-12T10:22:48.690Z,2.47
2022-09-12T10:25:18.442Z,3.45
2022-09-12T10:27:45.109Z,5.55
2022-09-12T10:30:14.915Z,48.92
2022-09-12T10:32:45.339Z,3.90
2022-09-12T10:36:38.173Z,5.20
2022-09-12T10:39:06.164Z,2.63
2022-09-12T10:41:39.835Z,3.88
2022-09-12T10:46:41.369Z,2.05
2022-09-12T10:49:20.261Z,3.47
2022-09-12T10:51:47.293Z,3.05
2022-09-12T10:54:18.445Z,4.25
2022-09-12T10:57:22.422Z,3.53
2022-09-12T11:00:15.591Z,1.80
2022-09-12T11:02:50.935Z,4.50
2022-09-12T11:05:53.623Z,5.18
2022-09-12T11:08:26.792Z,3.85
2022-09-12T11:10:57.972Z,2.40
2022-09-12T11:13:55.786Z,4.05
2022-09-12T11:16:43.084Z,3.15
2022-09-12T11:19:32.854Z,3.42
2022-09-12T11:22:36.928Z,2.90
2022-09-12T11:25:17.091Z,2.65
2022-09-12T11:27:55.243Z,3.85
2022-09-12T11:30:22.304Z,3.20
2022-09-12T11:33:05.841Z,4.25
2022-09-12T11:35:35.552Z,2.97
2022-09-12T11:38:27.497Z,3.80
2022-09-12T11:40:59.199Z,6.13
2022-09-12T11:43:48.846Z,5.93
2022-09-12T11:46:36.375Z,1.85
2022-09-12T11:49:23.120Z,3.95
2022-09-12T11:52:04.491Z,2.60
2022-09-12T11:54:39.210Z,3.67
2022-09-12T11:57:17.014Z,2.30
2022-09-12T11:59:50.205Z,3.67
2022-09-12T12:02:26.829Z,4.10
2022-09-12T12:04:56.596Z,1.75
2022-09-12T12:07:23.205Z,3.30
2022-09-12T12:09:52.817Z,2.22
2022-09-12T12:12:25.154Z,3.28
2022-09-12T12:14:54.722Z,2.50
2022-09-12T12:17:24.281Z,4.97
2022-09-12T12:20:06.715Z,3.13
2022-09-12T12:22:35.273Z,2.35
2022-09-12T12:25:06.649Z,6.53
2022-09-12T12:27:55.286Z,3.03
2022-09-12T12:30:31.159Z,5.25
2022-09-12T12:33:01.486Z,4.15
2022-09-12T12:37:41.902Z,2.28
2022-09-12T12:40:22.004Z,1.92
2022-09-12T12:42:57.534Z,2.38
2022-09-12T12:45:27.206Z,3.60
2022-09-12T12:47:58.275Z,4.22
2022-09-12T12:50:32.207Z,2.63
2022-09-12T12:53:04.725Z,1.80
2022-09-12T12:55:53.123Z,1.58
2022-09-12T12:58:29.072Z,9.75
2022-09-12T13:01:16.794Z,3.00
2022-09-12T13:03:52.409Z,4.30
2022-09-12T13:06:33.500Z,2.45
2022-09-12T13:09:05.395Z,3.70
2022-09-12T13:11:37.529Z,3.28
2022-09-12T13:14:42.789Z,2.25
2022-09-12T13:17:20.728Z,2.67
2022-09-12T13:19:48.661Z,5.25
2022-09-12T13:22:15.759Z,2.42
2022-09-12T13:24:52.411Z,1.98
2022-09-12T13:27:19.086Z,2.95
2022-09-12T13:29:48.776Z,1.38
2022-09-12T13:32:18.298Z,3.45
2022-09-12T13:35:19.818Z,2.58
2022-09-12T13:38:01.066Z,1.85
2022-09-12T13:40:36.792Z,2.85
2022-09-12T13:43:14.121Z,2.13
2022-09-12T13:45:42.902Z,3.03
2022-09-12T13:48:22.690Z,3.08
2022-09-12T13:51:02.235Z,3.92
2022-09-12T13:53:37.078Z,1.70
2022-09-12T13:56:03.965Z,2.75
2022-09-12T13:58:37.166Z,4.57
2022-09-12T14:01:15.437Z,2.85
2022-09-12T14:04:15.161Z,3.28
2022-09-12T14:06:49.664Z,2.10
2022-09-12T14:09:25.471Z,1.27
2022-09-12T14:11:53.185Z,4.55
2022-09-12T14:14:44.060Z,2.42
2022-09-12T14:17:33.070Z,2.25
2022-09-12T14:20:07.531Z,2.72
2022-09-12T14:22:36.016Z,1.13
2022-09-12T14:25:03.966Z,2.25
2022-09-12T14:27:42.538Z,3.25
2022-09-12T14:30:23.263Z,1.33
2022-09-12T14:33:20.133Z,3.63
2022-09-12T14:38:42.512Z,2.00
2022-09-12T14:41:13.128Z,1.88
2022-09-12T14:43:49.200Z,2.00
2022-09-12T14:46:23.381Z,2.17
2022-09-12T14:49:02.337Z,2.50
2022-09-12T14:51:34.852Z,1.30
2022-09-12T14:54:05.236Z,5.63
2022-09-12T14:56:57.155Z,1.52
2022-09-12T14:59:32.377Z,1.75
2022-09-12T15:02:25.898Z,2.33
2022-09-12T15:05:03.244Z,2.17
2022-09-12T15:08:04.830Z,1.48
2022-09-12T15:10:40.694Z,1.63
2022-09-12T15:13:21.487Z,4.13
2022-09-12T15:15:57.029Z,4.40
2022-09-12T15:18:35.139Z,1.75
2022-09-12T15:21:13.830Z,3.20
2022-09-12T15:23:45.844Z,2.33
2022-09-12T15:26:17.352Z,2.88
2022-09-12T15:28:44.867Z,2.70
2022-09-12T15:31:36.066Z,1.30
2022-09-12T15:34:06.264Z,1.42
2022-09-12T15:36:33.220Z,1.73
2022-09-12T15:39:00.244Z,3.83
2022-09-12T15:41:37.926Z,2.03
2022-09-12T15:44:05.640Z,2.95
2022-09-12T15:46:32.823Z,2.33
2022-09-12T15:48:59.748Z,2.30
2022-09-12T15:51:33.332Z,2.42
2022-09-12T15:56:27.541Z,5.68
2022-09-12T15:58:59.120Z,3.90
2022-09-12T16:01:28.327Z,6.03
2022-09-12T16:03:58.455Z,2.03
2022-09-12T16:06:25.502Z,5.40
2022-09-12T16:08:52.286Z,4.70
2022-09-12T16:11:27.985Z,4.55
2022-09-12T16:13:57.045Z,2.72
2022-09-12T16:16:24.371Z,2.95
2022-09-12T16:18:51.089Z,2.28
2022-09-12T16:21:21.695Z,8.38
2022-09-12T16:23:48.976Z,3.63
2022-09-12T16:26:17.138Z,4.43
2022-09-12T16:28:44.171Z,2.85
2022-09-12T16:31:13.939Z,50.90
2022-09-12T16:33:41.157Z,41.33
2022-09-12T16:39:38.252Z,31.23
2022-09-12T16:42:04.974Z,33.25
2022-09-12T16:44:31.556Z,34.35
2022-09-12T16:46:58.189Z,46.88
2022-09-12T16:49:24.846Z,48.25
2022-09-12T16:51:51.624Z,50.63
2022-09-12T16:54:18.538Z,48.72
2022-09-12T16:56:45.335Z,32.80
2022-09-12T16:59:14.340Z,26.67
2022-09-12T17:01:41.618Z,11.07
2022-09-12T17:04:10.670Z,12.15
2022-09-12T17:06:37.568Z,22.00
2022-09-12T17:09:05.104Z,14.68
2022-09-12T17:11:34.994Z,12.75
2022-09-12T17:14:05.911Z,14.95
2022-09-12T17:16:35.771Z,82.93
2022-09-12T17:19:02.797Z,48.65
2022-09-12T17:21:29.670Z,17.60
2022-09-12T17:23:56.702Z,8.20
2022-09-12T17:26:23.389Z,5.05
2022-09-12T17:28:50.303Z,12.40
2022-09-12T17:31:17.413Z,16.35
2022-09-12T17:33:44.690Z,11.60
2022-09-12T17:36:17.054Z,9.98
2022-09-12T17:38:45.854Z,9.38
2022-09-12T17:41:21.663Z,8.48
2022-09-12T17:43:51.324Z,10.80
2022-09-12T17:46:22.582Z,11.07
2022-09-12T17:49:00.468Z,27.45
2022-09-12T17:51:30.845Z,235.38
2022-09-12T17:54:06.300Z,184.25
2022-09-12T17:56:34.979Z,91.38
2022-09-12T17:59:01.942Z,28.17
2022-09-12T18:01:48.652Z,23.65
2022-09-12T18:04:16.146Z,51.33
2022-09-12T18:06:48.287Z,51.90
2022-09-12T18:09:20.400Z,50.53
2022-09-12T18:11:48.645Z,37.85
2022-09-12T18:14:19.106Z,28.90
2022-09-12T18:16:46.671Z,23.42
2022-09-12T18:19:14.187Z,34.53
2022-09-12T18:21:40.928Z,85.85
2022-09-12T18:24:09.162Z,120.28
2022-09-12T18:26:35.909Z,182.50
2022-09-12T18:29:05.777Z,76.57
2022-09-12T18:31:32.912Z,89.20
2022-09-12T18:34:02.789Z,37.78
2022-09-12T18:36:30.716Z,15.48
2022-09-12T18:40:35.167Z,6.72
2022-09-12T18:43:01.857Z,6.63
2022-09-12T18:45:28.625Z,5.53
2022-09-12T18:47:55.814Z,7.90
2022-09-12T18:50:25.500Z,10.40
2022-09-12T18:52:56.624Z,6.28
2022-09-12T18:55:25.800Z,7.78
2022-09-12T18:57:52.514Z,7.93
2022-09-12T19:00:19.327Z,6.28
2022-09-12T19:02:46.067Z,8.25
2022-09-12T19:05:13.013Z,7.38
2022-09-12T19:07:39.668Z,9.05
2022-09-12T19:10:06.661Z,5.88
2022-09-12T19:12:33.708Z,8.00
2022-09-12T19:15:00.380Z,6.65
2022-09-12T19:17:27.118Z,7.10
2022-09-12T19:19:53.873Z,7.60
2022-09-12T19:22:20.535Z,12.15
2022-09-12T19:24:47.182Z,7.03
2022-09-12T19:27:13.827Z,9.10
2022-09-12T19:29:40.488Z,7.47
2022-09-12T19:32:07.763Z,7.82
2022-09-12T19:34:34.402Z,6.68
2022-09-12T19:37:01.020Z,6.90
2022-09-12T19:39:27.649Z,7.35
2022-09-12T19:41:54.531Z,9.02
2022-09-12T19:44:21.268Z,7.38
2022-09-12T19:46:48.106Z,6.80
2022-09-12T19:49:14.814Z,10.25
2022-09-12T19:51:41.828Z,7.45
2022-09-12T19:54:08.502Z,6.78
2022-09-12T19:56:35.098Z,6.22
2022-09-12T19:59:01.640Z,8.88
2022-09-12T20:01:28.889Z,8.30
2022-09-12T20:03:56.858Z,9.75
2022-09-12T20:06:23.617Z,15.77
2022-09-12T20:08:50.098Z,15.88
2022-09-12T20:11:21.948Z,27.05
2022-09-12T20:13:48.615Z,27.77
2022-09-12T20:16:22.640Z,30.77
2022-09-12T20:18:54.775Z,28.15
2022-09-12T20:21:25.479Z,28.00
2022-09-12T20:23:52.268Z,37.50
2022-09-12T20:26:20.388Z,35.70
2022-09-12T20:28:47.155Z,50.35
2022-09-12T20:31:15.992Z,43.22
2022-09-12T20:33:43.225Z,34.97
2022-09-12T20:36:13.947Z,20.45
2022-09-12T20:41:36.373Z,16.95
2022-09-12T20:44:03.116Z,9.65
2022-09-12T20:46:29.861Z,8.68
2022-09-12T20:48:56.613Z,7.32
2022-09-12T20:51:26.659Z,11.35
2022-09-12T20:53:58.486Z,8.10
2022-09-12T20:56:27.163Z,8.52
2022-09-12T20:58:54.839Z,7.55
2022-09-12T21:01:22.042Z,8.75
2022-09-12T21:03:48.700Z,8.18
2022-09-12T21:06:19.359Z,7.32
2022-09-12T21:08:47.324Z,11.63
2022-09-12T21:11:16.955Z,12.07
2022-09-12T21:13:43.815Z,16.58
2022-09-12T21:16:15.872Z,16.55
2022-09-12T21:18:43.136Z,20.83
2022-09-12T21:21:12.051Z,18.20
2022-09-12T21:23:41.383Z,12.50
2022-09-12T21:26:08.587Z,10.40
2022-09-12T21:28:38.214Z,8.68
2022-09-12T21:31:05.334Z,9.45
2022-09-12T21:33:32.114Z,7.82
2022-09-12T21:36:03.737Z,8.13
2022-09-12T21:38:31.061Z,8.15
2022-09-12T21:41:12.946Z,7.72
2022-09-12T21:43:40.234Z,9.85
2022-09-12T21:46:07.781Z,9.75
2022-09-12T21:48:35.105Z,8.10
2022-09-12T21:51:05.369Z,7.03
2022-09-12T21:53:32.278Z,7.57
2022-09-12T21:56:04.780Z,8.50
2022-09-12T21:58:31.530Z,8.05
2022-09-12T22:00:59.875Z,10.18
2022-09-12T22:03:28.648Z,9.68
2022-09-12T22:05:59.986Z,10.40
2022-09-12T22:08:27.423Z,10.60
2022-09-12T22:10:58.156Z,8.05
2022-09-12T22:13:24.647Z,15.43
2022-09-12T22:15:53.513Z,18.20
2022-09-12T22:18:20.251Z,11.43
2022-09-12T22:20:46.803Z,9.25
2022-09-12T22:23:51.807Z,9.27
2022-09-12T22:26:18.349Z,7.53
2022-09-12T22:28:45.233Z,10.27
2022-09-12T22:31:12.952Z,5.90
2022-09-12T22:33:39.704Z,8.05
2022-09-12T22:36:06.925Z,7.00
2022-09-12T22:38:33.591Z,8.57
2022-09-12T22:42:46.310Z,12.18
2022-09-12T22:45:13.013Z,16.27
2022-09-12T22:47:39.662Z,20.20
2022-09-12T22:50:06.857Z,22.60
2022-09-12T22:52:33.542Z,25.50
2022-09-12T22:55:00.298Z,22.83
2022-09-12T22:57:27.130Z,18.48
2022-09-12T22:59:53.943Z,11.15
2022-09-12T23:02:24.187Z,9.63
2022-09-12T23:04:54.263Z,13.45
2022-09-12T23:07:20.929Z,6.38
2022-09-12T23:09:48.373Z,9.70
2022-09-12T23:12:15.584Z,25.08
2022-09-12T23:14:45.615Z,63.75
2022-09-12T23:17:12.392Z,50.17
2022-09-12T23:19:42.414Z,46.35
2022-09-12T23:22:09.286Z,54.05
2022-09-12T23:24:39.243Z,52.20
2022-09-12T23:27:06.181Z,45.30
2022-09-12T23:29:35.697Z,31.00
2022-09-12T23:32:04.283Z,22.75
2022-09-12T23:34:31.305Z,23.75
2022-09-12T23:36:58.000Z,43.53
2022-09-12T23:39:24.948Z,42.42
2022-09-12T23:41:52.281Z,47.88
2022-09-12T23:44:18.964Z,32.97
2022-09-12T23:46:45.775Z,31.10
2022-09-12T23:49:14.525Z,26.08
2022-09-12T23:51:41.200Z,18.52
2022-09-12T23:54:08.277Z,8.90
2022-09-12T23:56:34.926Z,9.05
2022-09-12T23:59:01.704Z,11.15
